sensor_id;sensor_type;location;lat;lon;timestamp;P1;durP1;ratioP1;P2;durP2;ratioP2
68507;SDS011;55510;49.560;19.090;2023-04-06T00:00:50;55.85;;;24.67;;
68507;SDS011;55510;49.560;19.090;2023-04-06T00:03:52;65.00;;;27.40;;
68507;SDS011;55510;49.560;19.090;2023-04-06T00:06:52;65.87;;;28.20;;
68507;SDS011;55510;49.560;19.090;2023-04-06T00:09:53;66.97;;;27.27;;
68507;SDS011;55510;49.560;19.090;2023-04-06T00:12:54;72.47;;;29.47;;
68507;SDS011;55510;49.560;19.090;2023-04-06T00:15:56;61.30;;;24.33;;
68507;SDS011;55510;49.560;19.090;2023-04-06T00:18:57;79.87;;;29.07;;
68507;SDS011;55510;49.560;19.090;2023-04-06T00:21:58;63.55;;;25.98;;
68507;SDS011;55510;49.560;19.090;2023-04-06T00:24:58;58.50;;;23.60;;
68507;SDS011;55510;49.560;19.090;2023-04-06T00:27:59;61.38;;;25.27;;
68507;SDS011;55510;49.560;19.090;2023-04-06T00:31:00;60.40;;;25.67;;
68507;SDS011;55510;49.560;19.090;2023-04-06T00:34:01;49.25;;;23.42;;
68507;SDS011;55510;49.560;19.090;2023-04-06T00:37:01;47.83;;;20.70;;
68507;SDS011;55510;49.560;19.090;2023-04-06T00:40:02;62.63;;;26.33;;
68507;SDS011;55510;49.560;19.090;2023-04-06T00:43:03;61.45;;;27.25;;
68507;SDS011;55510;49.560;19.090;2023-04-06T00:46:04;53.08;;;22.02;;
68507;SDS011;55510;49.560;19.090;2023-04-06T00:49:05;53.78;;;23.83;;
68507;SDS011;55510;49.560;19.090;2023-04-06T00:52:06;57.90;;;23.30;;
68507;SDS011;55510;49.560;19.090;2023-04-06T00:55:07;66.25;;;26.67;;
68507;SDS011;55510;49.560;19.090;2023-04-06T00:58:08;146.10;;;55.28;;
68507;SDS011;55510;49.560;19.090;2023-04-06T01:01:09;149.50;;;49.17;;
68507;SDS011;55510;49.560;19.090;2023-04-06T01:04:09;136.87;;;45.97;;
68507;SDS011;55510;49.560;19.090;2023-04-06T01:07:10;125.70;;;45.83;;
68507;SDS011;55510;49.560;19.090;2023-04-06T01:10:11;111.93;;;37.17;;
68507;SDS011;55510;49.560;19.090;2023-04-06T01:13:25;92.40;;;33.15;;
68507;SDS011;55510;49.560;19.090;2023-04-06T01:16:27;80.85;;;28.60;;
68507;SDS011;55510;49.560;19.090;2023-04-06T01:19:28;59.15;;;25.80;;
68507;SDS011;55510;49.560;19.090;2023-04-06T01:22:29;56.67;;;23.73;;
68507;SDS011;55510;49.560;19.090;2023-04-06T01:25:29;52.63;;;22.52;;
68507;SDS011;55510;49.560;19.090;2023-04-06T01:28:30;58.07;;;24.07;;
68507;SDS011;55510;49.560;19.090;2023-04-06T01:31:31;49.17;;;22.13;;
68507;SDS011;55510;49.560;19.090;2023-04-06T01:34:32;45.87;;;20.20;;
68507;SDS011;55510;49.560;19.090;2023-04-06T01:37:32;47.75;;;19.50;;
68507;SDS011;55510;49.560;19.090;2023-04-06T01:40:33;53.53;;;23.90;;
68507;SDS011;55510;49.560;19.090;2023-04-06T01:43:34;52.10;;;22.92;;
68507;SDS011;55510;49.560;19.090;2023-04-06T01:46:35;58.90;;;24.10;;
68507;SDS011;55510;49.560;19.090;2023-04-06T01:49:36;51.17;;;24.03;;
68507;SDS011;55510;49.560;19.090;2023-04-06T01:52:37;65.60;;;27.47;;
68507;SDS011;55510;49.560;19.090;2023-04-06T01:55:38;57.20;;;24.88;;
68507;SDS011;55510;49.560;19.090;2023-04-06T01:58:38;50.47;;;23.80;;
68507;SDS011;55510;49.560;19.090;2023-04-06T02:01:39;58.77;;;22.47;;
68507;SDS011;55510;49.560;19.090;2023-04-06T02:04:40;49.95;;;19.55;;
68507;SDS011;55510;49.560;19.090;2023-04-06T02:07:41;51.80;;;20.77;;
68507;SDS011;55510;49.560;19.090;2023-04-06T02:10:42;51.42;;;20.65;;
68507;SDS011;55510;49.560;19.090;2023-04-06T02:13:42;69.93;;;27.20;;
68507;SDS011;55510;49.560;19.090;2023-04-06T02:16:43;57.30;;;25.33;;
68507;SDS011;55510;49.560;19.090;2023-04-06T02:19:44;63.07;;;26.60;;
68507;SDS011;55510;49.560;19.090;2023-04-06T02:22:45;63.08;;;28.58;;
68507;SDS011;55510;49.560;19.090;2023-04-06T02:25:45;63.43;;;26.03;;
68507;SDS011;55510;49.560;19.090;2023-04-06T02:28:46;51.50;;;22.45;;
68507;SDS011;55510;49.560;19.090;2023-04-06T02:31:47;47.63;;;20.83;;
68507;SDS011;55510;49.560;19.090;2023-04-06T02:34:47;59.40;;;22.33;;
68507;SDS011;55510;49.560;19.090;2023-04-06T02:37:48;53.97;;;20.57;;
68507;SDS011;55510;49.560;19.090;2023-04-06T02:40:49;43.08;;;19.35;;
68507;SDS011;55510;49.560;19.090;2023-04-06T02:43:49;50.33;;;20.87;;
68507;SDS011;55510;49.560;19.090;2023-04-06T02:46:50;42.47;;;18.95;;
68507;SDS011;55510;49.560;19.090;2023-04-06T02:49:51;39.40;;;16.93;;
68507;SDS011;55510;49.560;19.090;2023-04-06T02:52:52;48.75;;;19.95;;
68507;SDS011;55510;49.560;19.090;2023-04-06T02:55:53;59.75;;;24.77;;
68507;SDS011;55510;49.560;19.090;2023-04-06T02:58:54;55.17;;;24.90;;
68507;SDS011;55510;49.560;19.090;2023-04-06T03:01:54;60.90;;;25.17;;
68507;SDS011;55510;49.560;19.090;2023-04-06T03:04:55;51.58;;;23.85;;
68507;SDS011;55510;49.560;19.090;2023-04-06T03:07:56;52.25;;;22.58;;
68507;SDS011;55510;49.560;19.090;2023-04-06T03:10:57;53.53;;;22.08;;
68507;SDS011;55510;49.560;19.090;2023-04-06T03:13:57;70.13;;;27.25;;
68507;SDS011;55510;49.560;19.090;2023-04-06T03:16:59;57.63;;;22.83;;
68507;SDS011;55510;49.560;19.090;2023-04-06T03:20:00;59.53;;;23.13;;
68507;SDS011;55510;49.560;19.090;2023-04-06T03:23:01;61.95;;;28.08;;
68507;SDS011;55510;49.560;19.090;2023-04-06T03:26:02;59.27;;;26.93;;
68507;SDS011;55510;49.560;19.090;2023-04-06T03:29:04;69.72;;;32.67;;
68507;SDS011;55510;49.560;19.090;2023-04-06T03:32:04;72.80;;;32.57;;
68507;SDS011;55510;49.560;19.090;2023-04-06T03:35:05;71.47;;;29.45;;
68507;SDS011;55510;49.560;19.090;2023-04-06T03:38:06;67.05;;;27.20;;
68507;SDS011;55510;49.560;19.090;2023-04-06T03:41:07;52.77;;;21.73;;
68507;SDS011;55510;49.560;19.090;2023-04-06T03:44:07;48.42;;;19.17;;
68507;SDS011;55510;49.560;19.090;2023-04-06T03:47:08;43.43;;;18.57;;
68507;SDS011;55510;49.560;19.090;2023-04-06T03:50:09;47.92;;;18.02;;
68507;SDS011;55510;49.560;19.090;2023-04-06T03:53:10;37.83;;;16.53;;
68507;SDS011;55510;49.560;19.090;2023-04-06T03:56:11;41.38;;;16.17;;
68507;SDS011;55510;49.560;19.090;2023-04-06T03:59:12;45.70;;;19.10;;
68507;SDS011;55510;49.560;19.090;2023-04-06T04:02:12;43.08;;;18.60;;
68507;SDS011;55510;49.560;19.090;2023-04-06T04:05:13;60.57;;;27.53;;
68507;SDS011;55510;49.560;19.090;2023-04-06T04:08:13;64.80;;;28.83;;
68507;SDS011;55510;49.560;19.090;2023-04-06T04:11:14;76.00;;;32.07;;
68507;SDS011;55510;49.560;19.090;2023-04-06T04:14:16;64.65;;;27.20;;
68507;SDS011;55510;49.560;19.090;2023-04-06T04:17:16;60.60;;;24.10;;
68507;SDS011;55510;49.560;19.090;2023-04-06T04:20:17;50.63;;;20.43;;
68507;SDS011;55510;49.560;19.090;2023-04-06T04:23:18;44.85;;;19.48;;
68507;SDS011;55510;49.560;19.090;2023-04-06T04:26:18;53.03;;;21.43;;
68507;SDS011;55510;49.560;19.090;2023-04-06T04:29:20;65.40;;;22.52;;
68507;SDS011;55510;49.560;19.090;2023-04-06T04:32:22;59.13;;;22.97;;
68507;SDS011;55510;49.560;19.090;2023-04-06T04:35:23;48.30;;;18.55;;
68507;SDS011;55510;49.560;19.090;2023-04-06T04:38:24;44.77;;;19.03;;
68507;SDS011;55510;49.560;19.090;2023-04-06T04:41:25;52.80;;;22.90;;
68507;SDS011;55510;49.560;19.090;2023-04-06T04:44:25;53.30;;;20.70;;
68507;SDS011;55510;49.560;19.090;2023-04-06T04:47:26;69.17;;;27.67;;
68507;SDS011;55510;49.560;19.090;2023-04-06T04:50:27;62.03;;;25.40;;
68507;SDS011;55510;49.560;19.090;2023-04-06T04:53:28;102.13;;;38.95;;
68507;SDS011;55510;49.560;19.090;2023-04-06T04:56:28;107.53;;;39.10;;
68507;SDS011;55510;49.560;19.090;2023-04-06T04:59:30;75.15;;;30.33;;
68507;SDS011;55510;49.560;19.090;2023-04-06T05:02:30;68.15;;;24.73;;
68507;SDS011;55510;49.560;19.090;2023-04-06T05:05:31;57.93;;;22.27;;
68507;SDS011;55510;49.560;19.090;2023-04-06T05:08:32;58.35;;;22.92;;
68507;SDS011;55510;49.560;19.090;2023-04-06T05:11:34;50.03;;;20.80;;
68507;SDS011;55510;49.560;19.090;2023-04-06T05:14:34;56.80;;;20.77;;
68507;SDS011;55510;49.560;19.090;2023-04-06T05:17:35;53.90;;;24.83;;
68507;SDS011;55510;49.560;19.090;2023-04-06T05:20:38;44.90;;;17.10;;
68507;SDS011;55510;49.560;19.090;2023-04-06T05:23:39;49.50;;;21.83;;
68507;SDS011;55510;49.560;19.090;2023-04-06T05:26:40;43.10;;;20.27;;
68507;SDS011;55510;49.560;19.090;2023-04-06T05:29:41;48.65;;;21.20;;
68507;SDS011;55510;49.560;19.090;2023-04-06T05:32:42;43.83;;;18.80;;
68507;SDS011;55510;49.560;19.090;2023-04-06T05:35:44;47.08;;;20.33;;
68507;SDS011;55510;49.560;19.090;2023-04-06T05:38:45;103.25;;;34.63;;
68507;SDS011;55510;49.560;19.090;2023-04-06T05:41:46;80.60;;;32.77;;
68507;SDS011;55510;49.560;19.090;2023-04-06T05:44:46;66.28;;;25.27;;
68507;SDS011;55510;49.560;19.090;2023-04-06T05:47:47;61.47;;;22.20;;
68507;SDS011;55510;49.560;19.090;2023-04-06T05:50:48;55.93;;;21.80;;
68507;SDS011;55510;49.560;19.090;2023-04-06T05:53:53;82.97;;;32.17;;
68507;SDS011;55510;49.560;19.090;2023-04-06T05:56:54;87.03;;;35.50;;
68507;SDS011;55510;49.560;19.090;2023-04-06T05:59:55;71.50;;;29.73;;
68507;SDS011;55510;49.560;19.090;2023-04-06T06:02:55;59.15;;;23.17;;
68507;SDS011;55510;49.560;19.090;2023-04-06T06:06:00;56.27;;;24.47;;
68507;SDS011;55510;49.560;19.090;2023-04-06T06:09:01;43.20;;;21.10;;
68507;SDS011;55510;49.560;19.090;2023-04-06T06:12:03;46.42;;;19.00;;
68507;SDS011;55510;49.560;19.090;2023-04-06T06:15:04;65.23;;;25.43;;
68507;SDS011;55510;49.560;19.090;2023-04-06T06:18:05;58.38;;;23.92;;
68507;SDS011;55510;49.560;19.090;2023-04-06T06:21:06;53.00;;;22.30;;
68507;SDS011;55510;49.560;19.090;2023-04-06T06:24:07;63.80;;;24.60;;
68507;SDS011;55510;49.560;19.090;2023-04-06T06:27:08;69.33;;;30.33;;
68507;SDS011;55510;49.560;19.090;2023-04-06T06:30:09;58.08;;;26.65;;
68507;SDS011;55510;49.560;19.090;2023-04-06T06:33:10;57.67;;;25.40;;
68507;SDS011;55510;49.560;19.090;2023-04-06T06:36:11;54.42;;;24.48;;
68507;SDS011;55510;49.560;19.090;2023-04-06T06:39:11;56.87;;;26.23;;
68507;SDS011;55510;49.560;19.090;2023-04-06T06:42:12;59.55;;;26.67;;
68507;SDS011;55510;49.560;19.090;2023-04-06T06:45:13;78.90;;;30.87;;
68507;SDS011;55510;49.560;19.090;2023-04-06T06:48:14;56.47;;;26.63;;
68507;SDS011;55510;49.560;19.090;2023-04-06T06:51:14;59.93;;;25.90;;
68507;SDS011;55510;49.560;19.090;2023-04-06T06:54:15;66.40;;;27.90;;
68507;SDS011;55510;49.560;19.090;2023-04-06T06:57:16;62.73;;;28.30;;
68507;SDS011;55510;49.560;19.090;2023-04-06T07:00:17;65.53;;;27.83;;
68507;SDS011;55510;49.560;19.090;2023-04-06T07:03:18;52.63;;;23.67;;
68507;SDS011;55510;49.560;19.090;2023-04-06T07:06:18;54.15;;;22.67;;
68507;SDS011;55510;49.560;19.090;2023-04-06T07:09:19;42.73;;;19.10;;
68507;SDS011;55510;49.560;19.090;2023-04-06T07:12:20;40.10;;;16.40;;
68507;SDS011;55510;49.560;19.090;2023-04-06T07:15:21;33.57;;;15.73;;
68507;SDS011;55510;49.560;19.090;2023-04-06T07:18:22;36.38;;;14.73;;
68507;SDS011;55510;49.560;19.090;2023-04-06T07:21:23;37.60;;;16.13;;
68507;SDS011;55510;49.560;19.090;2023-04-06T07:24:24;31.27;;;12.80;;
68507;SDS011;55510;49.560;19.090;2023-04-06T07:27:24;25.38;;;11.80;;
68507;SDS011;55510;49.560;19.090;2023-04-06T07:30:25;24.43;;;10.77;;
68507;SDS011;55510;49.560;19.090;2023-04-06T07:33:29;19.63;;;8.48;;
68507;SDS011;55510;49.560;19.090;2023-04-06T07:36:30;17.73;;;7.03;;
68507;SDS011;55510;49.560;19.090;2023-04-06T07:39:31;15.60;;;5.87;;
68507;SDS011;55510;49.560;19.090;2023-04-06T07:42:31;14.18;;;5.93;;
68507;SDS011;55510;49.560;19.090;2023-04-06T07:45:33;12.05;;;6.15;;
68507;SDS011;55510;49.560;19.090;2023-04-06T07:48:33;13.07;;;6.60;;
68507;SDS011;55510;49.560;19.090;2023-04-06T07:51:37;18.17;;;6.88;;
68507;SDS011;55510;49.560;19.090;2023-04-06T07:54:40;18.20;;;7.30;;
68507;SDS011;55510;49.560;19.090;2023-04-06T07:57:41;14.93;;;6.23;;
68507;SDS011;55510;49.560;19.090;2023-04-06T08:00:42;16.35;;;7.57;;
68507;SDS011;55510;49.560;19.090;2023-04-06T08:03:43;20.13;;;7.70;;
68507;SDS011;55510;49.560;19.090;2023-04-06T08:06:44;17.63;;;8.27;;
68507;SDS011;55510;49.560;19.090;2023-04-06T08:09:44;21.57;;;9.47;;
68507;SDS011;55510;49.560;19.090;2023-04-06T08:12:45;23.63;;;9.70;;
68507;SDS011;55510;49.560;19.090;2023-04-06T08:15:46;23.10;;;9.60;;
68507;SDS011;55510;49.560;19.090;2023-04-06T08:18:47;18.20;;;7.70;;
68507;SDS011;55510;49.560;19.090;2023-04-06T08:21:47;18.97;;;8.30;;
68507;SDS011;55510;49.560;19.090;2023-04-06T08:24:48;16.10;;;7.10;;
68507;SDS011;55510;49.560;19.090;2023-04-06T08:27:48;16.57;;;7.03;;
68507;SDS011;55510;49.560;19.090;2023-04-06T08:30:49;16.67;;;6.18;;
68507;SDS011;55510;49.560;19.090;2023-04-06T08:33:50;14.70;;;6.13;;
68507;SDS011;55510;49.560;19.090;2023-04-06T08:36:51;14.02;;;7.07;;
68507;SDS011;55510;49.560;19.090;2023-04-06T08:39:52;17.52;;;8.88;;
68507;SDS011;55510;49.560;19.090;2023-04-06T08:42:54;20.97;;;9.37;;
68507;SDS011;55510;49.560;19.090;2023-04-06T08:45:56;16.70;;;6.53;;
68507;SDS011;55510;49.560;19.090;2023-04-06T08:48:57;13.40;;;6.03;;
68507;SDS011;55510;49.560;19.090;2023-04-06T08:52:00;13.38;;;6.45;;
68507;SDS011;55510;49.560;19.090;2023-04-06T08:55:02;13.23;;;6.00;;
68507;SDS011;55510;49.560;19.090;2023-04-06T08:58:03;15.65;;;6.18;;
68507;SDS011;55510;49.560;19.090;2023-04-06T09:01:07;12.00;;;5.78;;
68507;SDS011;55510;49.560;19.090;2023-04-06T09:04:11;14.40;;;6.72;;
68507;SDS011;55510;49.560;19.090;2023-04-06T09:07:13;17.00;;;5.60;;
68507;SDS011;55510;49.560;19.090;2023-04-06T09:10:15;14.97;;;6.27;;
68507;SDS011;55510;49.560;19.090;2023-04-06T09:13:17;11.85;;;5.82;;
68507;SDS011;55510;49.560;19.090;2023-04-06T09:16:18;14.68;;;6.38;;
68507;SDS011;55510;49.560;19.090;2023-04-06T09:19:19;12.50;;;5.90;;
68507;SDS011;55510;49.560;19.090;2023-04-06T09:22:19;14.02;;;5.80;;
68507;SDS011;55510;49.560;19.090;2023-04-06T09:25:21;17.03;;;7.63;;
68507;SDS011;55510;49.560;19.090;2023-04-06T09:28:23;11.90;;;5.97;;
68507;SDS011;55510;49.560;19.090;2023-04-06T09:31:28;14.93;;;6.45;;
68507;SDS011;55510;49.560;19.090;2023-04-06T09:34:30;17.70;;;7.05;;
68507;SDS011;55510;49.560;19.090;2023-04-06T09:37:31;12.67;;;5.83;;
68507;SDS011;55510;49.560;19.090;2023-04-06T09:40:32;13.57;;;5.87;;
68507;SDS011;55510;49.560;19.090;2023-04-06T09:43:33;14.57;;;6.67;;
68507;SDS011;55510;49.560;19.090;2023-04-06T09:46:40;17.98;;;8.10;;
68507;SDS011;55510;49.560;19.090;2023-04-06T09:49:42;17.17;;;7.00;;
68507;SDS011;55510;49.560;19.090;2023-04-06T09:52:47;15.13;;;6.40;;
68507;SDS011;55510;49.560;19.090;2023-04-06T09:55:50;14.93;;;6.78;;
68507;SDS011;55510;49.560;19.090;2023-04-06T09:59:01;14.32;;;6.07;;
68507;SDS011;55510;49.560;19.090;2023-04-06T10:02:05;12.57;;;6.78;;
68507;SDS011;55510;49.560;19.090;2023-04-06T10:08:36;16.33;;;6.27;;
68507;SDS011;55510;49.560;19.090;2023-04-06T10:11:42;15.23;;;6.53;;
68507;SDS011;55510;49.560;19.090;2023-04-06T10:14:43;17.92;;;6.90;;
68507;SDS011;55510;49.560;19.090;2023-04-06T10:17:45;12.27;;;6.35;;
68507;SDS011;55510;49.560;19.090;2023-04-06T10:23:51;20.17;;;8.40;;
68507;SDS011;55510;49.560;19.090;2023-04-06T10:26:58;17.02;;;7.60;;
68507;SDS011;55510;49.560;19.090;2023-04-06T10:30:05;16.00;;;7.03;;
68507;SDS011;55510;49.560;19.090;2023-04-06T10:33:13;22.58;;;8.52;;
68507;SDS011;55510;49.560;19.090;2023-04-06T10:36:22;14.90;;;7.37;;
68507;SDS011;55510;49.560;19.090;2023-04-06T10:39:25;21.10;;;7.78;;
68507;SDS011;55510;49.560;19.090;2023-04-06T10:42:36;22.83;;;10.38;;
68507;SDS011;55510;49.560;19.090;2023-04-06T10:45:38;71.65;;;27.60;;
68507;SDS011;55510;49.560;19.090;2023-04-06T10:48:40;33.67;;;14.20;;
68507;SDS011;55510;49.560;19.090;2023-04-06T10:51:41;21.57;;;9.37;;
68507;SDS011;55510;49.560;19.090;2023-04-06T10:54:42;24.90;;;11.50;;
68507;SDS011;55510;49.560;19.090;2023-04-06T10:57:46;20.75;;;10.10;;
68507;SDS011;55510;49.560;19.090;2023-04-06T11:00:47;21.63;;;9.97;;
68507;SDS011;55510;49.560;19.090;2023-04-06T11:03:55;19.52;;;8.68;;
68507;SDS011;55510;49.560;19.090;2023-04-06T11:06:59;43.65;;;18.25;;
68507;SDS011;55510;49.560;19.090;2023-04-06T11:10:00;23.23;;;11.30;;
68507;SDS011;55510;49.560;19.090;2023-04-06T11:13:01;22.23;;;9.60;;
68507;SDS011;55510;49.560;19.090;2023-04-06T11:16:03;22.40;;;10.55;;
68507;SDS011;55510;49.560;19.090;2023-04-06T11:19:04;23.77;;;9.30;;
68507;SDS011;55510;49.560;19.090;2023-04-06T11:22:08;22.73;;;9.90;;
68507;SDS011;55510;49.560;19.090;2023-04-06T11:25:12;23.10;;;8.95;;
68507;SDS011;55510;49.560;19.090;2023-04-06T11:28:14;19.42;;;8.43;;
68507;SDS011;55510;49.560;19.090;2023-04-06T11:31:14;21.73;;;8.47;;
68507;SDS011;55510;49.560;19.090;2023-04-06T11:34:16;16.58;;;6.95;;
68507;SDS011;55510;49.560;19.090;2023-04-06T11:37:18;20.15;;;8.65;;
68507;SDS011;55510;49.560;19.090;2023-04-06T11:40:22;19.83;;;8.60;;
68507;SDS011;55510;49.560;19.090;2023-04-06T11:43:27;17.73;;;8.38;;
68507;SDS011;55510;49.560;19.090;2023-04-06T11:46:29;18.40;;;8.25;;
68507;SDS011;55510;49.560;19.090;2023-04-06T11:49:30;15.87;;;8.23;;
68507;SDS011;55510;49.560;19.090;2023-04-06T11:52:31;18.08;;;8.43;;
68507;SDS011;55510;49.560;19.090;2023-04-06T11:55:37;17.02;;;8.48;;
68507;SDS011;55510;49.560;19.090;2023-04-06T11:58:38;19.65;;;10.38;;
68507;SDS011;55510;49.560;19.090;2023-04-06T12:01:48;19.93;;;10.83;;
68507;SDS011;55510;49.560;19.090;2023-04-06T12:04:49;19.40;;;8.63;;
68507;SDS011;55510;49.560;19.090;2023-04-06T12:07:49;25.83;;;11.43;;
68507;SDS011;55510;49.560;19.090;2023-04-06T12:10:50;34.75;;;15.43;;
68507;SDS011;55510;49.560;19.090;2023-04-06T12:13:51;37.58;;;14.50;;
68507;SDS011;55510;49.560;19.090;2023-04-06T12:16:52;49.27;;;22.77;;
68507;SDS011;55510;49.560;19.090;2023-04-06T12:19:52;26.83;;;12.05;;
68507;SDS011;55510;49.560;19.090;2023-04-06T12:22:53;28.87;;;14.07;;
68507;SDS011;55510;49.560;19.090;2023-04-06T12:25:54;19.55;;;10.52;;
68507;SDS011;55510;49.560;19.090;2023-04-06T12:28:55;24.50;;;10.33;;
68507;SDS011;55510;49.560;19.090;2023-04-06T12:31:56;40.75;;;15.60;;
68507;SDS011;55510;49.560;19.090;2023-04-06T12:34:57;92.40;;;28.52;;
68507;SDS011;55510;49.560;19.090;2023-04-06T12:37:58;42.07;;;16.10;;
68507;SDS011;55510;49.560;19.090;2023-04-06T12:40:59;35.83;;;15.25;;
68507;SDS011;55510;49.560;19.090;2023-04-06T12:43:59;27.67;;;12.10;;
68507;SDS011;55510;49.560;19.090;2023-04-06T12:47:00;25.30;;;11.55;;
68507;SDS011;55510;49.560;19.090;2023-04-06T12:50:03;40.15;;;20.20;;
68507;SDS011;55510;49.560;19.090;2023-04-06T12:53:05;35.27;;;16.50;;
68507;SDS011;55510;49.560;19.090;2023-04-06T12:56:13;29.63;;;14.03;;
68507;SDS011;55510;49.560;19.090;2023-04-06T12:59:15;55.00;;;22.55;;
68507;SDS011;55510;49.560;19.090;2023-04-06T13:02:16;64.10;;;24.53;;
68507;SDS011;55510;49.560;19.090;2023-04-06T13:05:17;51.03;;;22.58;;
68507;SDS011;55510;49.560;19.090;2023-04-06T13:08:19;49.22;;;22.55;;
68507;SDS011;55510;49.560;19.090;2023-04-06T13:11:20;77.07;;;33.38;;
68507;SDS011;55510;49.560;19.090;2023-04-06T13:14:24;43.85;;;21.10;;
68507;SDS011;55510;49.560;19.090;2023-04-06T13:17:26;129.93;;;41.33;;
68507;SDS011;55510;49.560;19.090;2023-04-06T13:20:27;68.53;;;24.38;;
68507;SDS011;55510;49.560;19.090;2023-04-06T13:23:28;101.05;;;37.70;;
68507;SDS011;55510;49.560;19.090;2023-04-06T13:26:29;68.60;;;28.13;;
68507;SDS011;55510;49.560;19.090;2023-04-06T13:29:33;47.55;;;19.35;;
68507;SDS011;55510;49.560;19.090;2023-04-06T13:32:34;149.43;;;58.10;;
68507;SDS011;55510;49.560;19.090;2023-04-06T13:35:35;44.92;;;21.58;;
68507;SDS011;55510;49.560;19.090;2023-04-06T13:38:36;42.60;;;18.10;;
68507;SDS011;55510;49.560;19.090;2023-04-06T13:41:39;36.78;;;15.90;;
68507;SDS011;55510;49.560;19.090;2023-04-06T13:44:40;53.53;;;23.00;;
68507;SDS011;55510;49.560;19.090;2023-04-06T13:47:41;145.48;;;56.97;;
68507;SDS011;55510;49.560;19.090;2023-04-06T13:50:42;68.03;;;29.20;;
68507;SDS011;55510;49.560;19.090;2023-04-06T13:53:43;57.15;;;26.50;;
68507;SDS011;55510;49.560;19.090;2023-04-06T13:56:44;46.53;;;20.58;;
68507;SDS011;55510;49.560;19.090;2023-04-06T13:59:44;56.37;;;23.77;;
68507;SDS011;55510;49.560;19.090;2023-04-06T14:02:45;47.20;;;21.90;;
68507;SDS011;55510;49.560;19.090;2023-04-06T14:05:46;47.10;;;20.30;;
68507;SDS011;55510;49.560;19.090;2023-04-06T14:08:46;40.47;;;21.60;;
68507;SDS011;55510;49.560;19.090;2023-04-06T14:11:47;58.95;;;30.08;;
68507;SDS011;55510;49.560;19.090;2023-04-06T14:14:48;43.72;;;20.52;;
68507;SDS011;55510;49.560;19.090;2023-04-06T14:17:50;51.73;;;22.97;;
68507;SDS011;55510;49.560;19.090;2023-04-06T14:20:54;44.50;;;21.02;;
68507;SDS011;55510;49.560;19.090;2023-04-06T14:23:56;53.25;;;25.88;;
68507;SDS011;55510;49.560;19.090;2023-04-06T14:26:57;56.43;;;26.30;;
68507;SDS011;55510;49.560;19.090;2023-04-06T14:29:58;46.83;;;23.17;;
68507;SDS011;55510;49.560;19.090;2023-04-06T14:32:58;50.40;;;23.43;;
68507;SDS011;55510;49.560;19.090;2023-04-06T14:36:01;55.65;;;24.90;;
68507;SDS011;55510;49.560;19.090;2023-04-06T14:39:06;56.77;;;27.80;;
68507;SDS011;55510;49.560;19.090;2023-04-06T14:42:08;56.47;;;26.73;;
68507;SDS011;55510;49.560;19.090;2023-04-06T14:45:08;175.20;;;56.80;;
68507;SDS011;55510;49.560;19.090;2023-04-06T14:48:09;187.37;;;59.03;;
68507;SDS011;55510;49.560;19.090;2023-04-06T14:51:12;394.30;;;114.03;;
68507;SDS011;55510;49.560;19.090;2023-04-06T14:54:13;281.40;;;90.00;;
68507;SDS011;55510;49.560;19.090;2023-04-06T14:57:13;87.33;;;36.07;;
68507;SDS011;55510;49.560;19.090;2023-04-06T15:00:14;149.95;;;58.65;;
68507;SDS011;55510;49.560;19.090;2023-04-06T15:03:15;137.10;;;65.10;;
68507;SDS011;55510;49.560;19.090;2023-04-06T15:06:17;72.15;;;35.03;;
68507;SDS011;55510;49.560;19.090;2023-04-06T15:09:19;61.57;;;25.80;;
68507;SDS011;55510;49.560;19.090;2023-04-06T15:12:20;192.20;;;90.43;;
68507;SDS011;55510;49.560;19.090;2023-04-06T15:15:20;126.70;;;59.90;;
68507;SDS011;55510;49.560;19.090;2023-04-06T15:18:21;81.35;;;39.63;;
68507;SDS011;55510;49.560;19.090;2023-04-06T15:21:22;63.37;;;31.83;;
68507;SDS011;55510;49.560;19.090;2023-04-06T15:24:22;62.30;;;26.43;;
68507;SDS011;55510;49.560;19.090;2023-04-06T15:27:23;56.63;;;24.02;;
68507;SDS011;55510;49.560;19.090;2023-04-06T15:30:24;43.93;;;21.67;;
68507;SDS011;55510;49.560;19.090;2023-04-06T15:33:25;55.03;;;25.75;;
68507;SDS011;55510;49.560;19.090;2023-04-06T15:36:28;45.55;;;21.75;;
68507;SDS011;55510;49.560;19.090;2023-04-06T15:39:30;76.57;;;32.43;;
68507;SDS011;55510;49.560;19.090;2023-04-06T15:42:31;73.50;;;32.37;;
68507;SDS011;55510;49.560;19.090;2023-04-06T15:45:32;62.92;;;26.73;;
68507;SDS011;55510;49.560;19.090;2023-04-06T15:48:33;62.37;;;27.70;;
68507;SDS011;55510;49.560;19.090;2023-04-06T15:51:34;79.50;;;34.67;;
68507;SDS011;55510;49.560;19.090;2023-04-06T15:54:35;65.03;;;24.83;;
68507;SDS011;55510;49.560;19.090;2023-04-06T15:57:40;55.33;;;22.07;;
68507;SDS011;55510;49.560;19.090;2023-04-06T16:00:41;56.70;;;23.33;;
68507;SDS011;55510;49.560;19.090;2023-04-06T16:03:42;50.38;;;21.25;;
68507;SDS011;55510;49.560;19.090;2023-04-06T16:06:43;43.05;;;18.27;;
68507;SDS011;55510;49.560;19.090;2023-04-06T16:09:44;49.90;;;21.07;;
68507;SDS011;55510;49.560;19.090;2023-04-06T16:12:45;54.95;;;22.05;;
68507;SDS011;55510;49.560;19.090;2023-04-06T16:15:48;62.20;;;27.70;;
68507;SDS011;55510;49.560;19.090;2023-04-06T16:18:50;65.00;;;27.88;;
68507;SDS011;55510;49.560;19.090;2023-04-06T16:21:50;58.33;;;26.70;;
68507;SDS011;55510;49.560;19.090;2023-04-06T16:24:51;53.35;;;26.23;;
68507;SDS011;55510;49.560;19.090;2023-04-06T16:27:52;60.33;;;29.03;;
68507;SDS011;55510;49.560;19.090;2023-04-06T16:30:52;59.08;;;26.15;;
68507;SDS011;55510;49.560;19.090;2023-04-06T16:33:54;67.40;;;28.93;;
68507;SDS011;55510;49.560;19.090;2023-04-06T16:36:56;67.22;;;29.08;;
68507;SDS011;55510;49.560;19.090;2023-04-06T16:39:56;70.37;;;28.73;;
68507;SDS011;55510;49.560;19.090;2023-04-06T16:42:57;58.75;;;24.25;;
68507;SDS011;55510;49.560;19.090;2023-04-06T16:45:58;51.70;;;23.37;;
68507;SDS011;55510;49.560;19.090;2023-04-06T16:48:59;79.03;;;26.42;;
68507;SDS011;55510;49.560;19.090;2023-04-06T16:52:01;88.53;;;31.00;;
68507;SDS011;55510;49.560;19.090;2023-04-06T16:55:04;74.63;;;28.33;;
68507;SDS011;55510;49.560;19.090;2023-04-06T16:58:05;44.00;;;20.92;;
68507;SDS011;55510;49.560;19.090;2023-04-06T17:01:06;42.83;;;19.42;;
68507;SDS011;55510;49.560;19.090;2023-04-06T17:04:07;43.33;;;18.60;;
68507;SDS011;55510;49.560;19.090;2023-04-06T17:07:07;38.70;;;18.27;;
68507;SDS011;55510;49.560;19.090;2023-04-06T17:10:10;42.55;;;19.23;;
68507;SDS011;55510;49.560;19.090;2023-04-06T17:13:10;42.73;;;16.97;;
68507;SDS011;55510;49.560;19.090;2023-04-06T17:16:11;45.72;;;18.55;;
68507;SDS011;55510;49.560;19.090;2023-04-06T17:19:12;48.50;;;21.03;;
68507;SDS011;55510;49.560;19.090;2023-04-06T17:22:13;48.77;;;23.17;;
68507;SDS011;55510;49.560;19.090;2023-04-06T17:25:19;45.00;;;20.58;;
68507;SDS011;55510;49.560;19.090;2023-04-06T17:28:21;37.30;;;16.47;;
68507;SDS011;55510;49.560;19.090;2023-04-06T17:31:22;53.47;;;22.93;;
68507;SDS011;55510;49.560;19.090;2023-04-06T17:34:22;59.93;;;26.20;;